sensor_id;sensor_type;location;lat;lon;timestamp;P1;durP1;ratioP1;P2;durP2;ratioP2
13708;SDS011;54933;51.908;7.730;2022-12-18T00:01:14;8.10;;;5.60;;
13708;SDS011;54933;51.908;7.730;2022-12-18T00:03:41;7.97;;;5.40;;
13708;SDS011;54933;51.908;7.730;2022-12-18T00:06:07;8.17;;;5.43;;
13708;SDS011;54933;51.908;7.730;2022-12-18T00:08:34;7.63;;;5.23;;
13708;SDS011;54933;51.908;7.730;2022-12-18T00:11:06;7.27;;;5.27;;
13708;SDS011;54933;51.908;7.730;2022-12-18T00:13:35;8.00;;;5.23;;
13708;SDS011;54933;51.908;7.730;2022-12-18T00:16:01;6.63;;;5.17;;
13708;SDS011;54933;51.908;7.730;2022-12-18T00:18:28;6.53;;;5.20;;
13708;SDS011;54933;51.908;7.730;2022-12-18T00:20:53;6.90;;;5.27;;
13708;SDS011;54933;51.908;7.730;2022-12-18T00:23:18;8.50;;;5.17;;
13708;SDS011;54933;51.908;7.730;2022-12-18T00:25:43;8.20;;;4.87;;
13708;SDS011;54933;51.908;7.730;2022-12-18T00:28:09;6.53;;;4.40;;
13708;SDS011;54933;51.908;7.730;2022-12-18T00:30:34;6.20;;;4.60;;
13708;SDS011;54933;51.908;7.730;2022-12-18T00:32:59;7.50;;;5.47;;
13708;SDS011;54933;51.908;7.730;2022-12-18T00:35:24;7.20;;;5.17;;
13708;SDS011;54933;51.908;7.730;2022-12-18T00:37:50;9.53;;;5.57;;
13708;SDS011;54933;51.908;7.730;2022-12-18T00:40:15;7.70;;;5.20;;
13708;SDS011;54933;51.908;7.730;2022-12-18T00:42:40;6.33;;;5.50;;
13708;SDS011;54933;51.908;7.730;2022-12-18T00:45:22;7.07;;;5.07;;
13708;SDS011;54933;51.908;7.730;2022-12-18T00:47:51;7.20;;;5.00;;
13708;SDS011;54933;51.908;7.730;2022-12-18T00:50:16;8.20;;;5.37;;
13708;SDS011;54933;51.908;7.730;2022-12-18T00:52:42;6.57;;;5.07;;
13708;SDS011;54933;51.908;7.730;2022-12-18T00:55:08;9.03;;;5.87;;
13708;SDS011;54933;51.908;7.730;2022-12-18T00:57:34;5.70;;;4.80;;
13708;SDS011;54933;51.908;7.730;2022-12-18T00:59:59;7.57;;;5.63;;
13708;SDS011;54933;51.908;7.730;2022-12-18T01:02:24;6.83;;;5.10;;
13708;SDS011;54933;51.908;7.730;2022-12-18T01:04:49;7.13;;;4.87;;
13708;SDS011;54933;51.908;7.730;2022-12-18T01:07:15;7.30;;;5.60;;
13708;SDS011;54933;51.908;7.730;2022-12-18T01:09:40;7.67;;;5.20;;
13708;SDS011;54933;51.908;7.730;2022-12-18T01:12:05;7.60;;;5.40;;
13708;SDS011;54933;51.908;7.730;2022-12-18T01:14:31;6.90;;;5.27;;
13708;SDS011;54933;51.908;7.730;2022-12-18T01:16:56;5.73;;;4.77;;
13708;SDS011;54933;51.908;7.730;2022-12-18T01:19:21;7.37;;;5.40;;
13708;SDS011;54933;51.908;7.730;2022-12-18T01:21:47;8.63;;;5.50;;
13708;SDS011;54933;51.908;7.730;2022-12-18T01:24:12;7.23;;;5.10;;
13708;SDS011;54933;51.908;7.730;2022-12-18T01:26:37;5.90;;;4.67;;
13708;SDS011;54933;51.908;7.730;2022-12-18T01:29:03;6.13;;;5.13;;
13708;SDS011;54933;51.908;7.730;2022-12-18T01:31:29;6.10;;;4.97;;
13708;SDS011;54933;51.908;7.730;2022-12-18T01:33:56;8.23;;;5.70;;
13708;SDS011;54933;51.908;7.730;2022-12-18T01:36:23;6.83;;;5.47;;
13708;SDS011;54933;51.908;7.730;2022-12-18T01:38:54;8.37;;;5.53;;
13708;SDS011;54933;51.908;7.730;2022-12-18T01:41:22;6.17;;;4.50;;
13708;SDS011;54933;51.908;7.730;2022-12-18T01:43:53;6.10;;;5.00;;
13708;SDS011;54933;51.908;7.730;2022-12-18T01:46:21;8.30;;;5.80;;
13708;SDS011;54933;51.908;7.730;2022-12-18T01:48:48;8.40;;;5.13;;
13708;SDS011;54933;51.908;7.730;2022-12-18T01:51:16;7.20;;;5.17;;
13708;SDS011;54933;51.908;7.730;2022-12-18T01:53:42;8.77;;;5.27;;
13708;SDS011;54933;51.908;7.730;2022-12-18T01:56:11;6.90;;;5.17;;
13708;SDS011;54933;51.908;7.730;2022-12-18T01:58:43;6.33;;;4.93;;
13708;SDS011;54933;51.908;7.730;2022-12-18T02:01:14;6.53;;;4.80;;
13708;SDS011;54933;51.908;7.730;2022-12-18T02:03:42;7.23;;;5.10;;
13708;SDS011;54933;51.908;7.730;2022-12-18T02:06:11;7.57;;;5.73;;
13708;SDS011;54933;51.908;7.730;2022-12-18T02:14:34;7.87;;;5.80;;
13708;SDS011;54933;51.908;7.730;2022-12-18T02:17:21;6.67;;;5.07;;
13708;SDS011;54933;51.908;7.730;2022-12-18T02:28:27;7.53;;;5.43;;
13708;SDS011;54933;51.908;7.730;2022-12-18T02:30:57;7.70;;;5.13;;
13708;SDS011;54933;51.908;7.730;2022-12-18T02:33:27;7.20;;;5.40;;
13708;SDS011;54933;51.908;7.730;2022-12-18T02:35:53;6.70;;;5.23;;
13708;SDS011;54933;51.908;7.730;2022-12-18T02:38:22;7.27;;;5.00;;
13708;SDS011;54933;51.908;7.730;2022-12-18T02:40:49;10.20;;;5.30;;
13708;SDS011;54933;51.908;7.730;2022-12-18T02:43:18;6.77;;;4.77;;
13708;SDS011;54933;51.908;7.730;2022-12-18T02:45:48;7.30;;;5.73;;
13708;SDS011;54933;51.908;7.730;2022-12-18T02:48:26;7.57;;;5.53;;
13708;SDS011;54933;51.908;7.730;2022-12-18T02:53:28;9.13;;;5.70;;
13708;SDS011;54933;51.908;7.730;2022-12-18T02:56:10;7.50;;;5.10;;
13708;SDS011;54933;51.908;7.730;2022-12-18T03:04:26;6.97;;;5.00;;
13708;SDS011;54933;51.908;7.730;2022-12-18T03:06:56;5.57;;;4.97;;
13708;SDS011;54933;51.908;7.730;2022-12-18T03:09:27;7.63;;;4.80;;
13708;SDS011;54933;51.908;7.730;2022-12-18T03:11:58;6.53;;;4.93;;
13708;SDS011;54933;51.908;7.730;2022-12-18T03:14:53;7.90;;;5.40;;
13708;SDS011;54933;51.908;7.730;2022-12-18T03:17:25;7.00;;;5.33;;
13708;SDS011;54933;51.908;7.730;2022-12-18T03:19:52;8.30;;;5.23;;
13708;SDS011;54933;51.908;7.730;2022-12-18T03:22:22;8.27;;;6.00;;
13708;SDS011;54933;51.908;7.730;2022-12-18T03:24:52;8.50;;;5.90;;
13708;SDS011;54933;51.908;7.730;2022-12-18T03:27:19;8.03;;;5.07;;
13708;SDS011;54933;51.908;7.730;2022-12-18T03:29:50;6.60;;;4.90;;
13708;SDS011;54933;51.908;7.730;2022-12-18T03:32:33;8.40;;;5.83;;
13708;SDS011;54933;51.908;7.730;2022-12-18T03:35:04;6.50;;;5.20;;
13708;SDS011;54933;51.908;7.730;2022-12-18T03:37:32;7.83;;;5.77;;
13708;SDS011;54933;51.908;7.730;2022-12-18T03:39:57;7.40;;;5.00;;
13708;SDS011;54933;51.908;7.730;2022-12-18T03:42:30;6.80;;;5.53;;
13708;SDS011;54933;51.908;7.730;2022-12-18T03:47:56;6.97;;;4.80;;
13708;SDS011;54933;51.908;7.730;2022-12-18T03:53:14;6.77;;;5.07;;
13708;SDS011;54933;51.908;7.730;2022-12-18T03:55:47;6.17;;;4.73;;
13708;SDS011;54933;51.908;7.730;2022-12-18T03:58:15;6.73;;;5.17;;
13708;SDS011;54933;51.908;7.730;2022-12-18T04:00:45;5.93;;;4.90;;
13708;SDS011;54933;51.908;7.730;2022-12-18T04:03:12;6.47;;;5.20;;
13708;SDS011;54933;51.908;7.730;2022-12-18T04:05:39;5.97;;;4.73;;
13708;SDS011;54933;51.908;7.730;2022-12-18T04:08:07;6.87;;;4.90;;
13708;SDS011;54933;51.908;7.730;2022-12-18T04:10:32;7.53;;;5.43;;
13708;SDS011;54933;51.908;7.730;2022-12-18T04:12:57;7.67;;;5.37;;
13708;SDS011;54933;51.908;7.730;2022-12-18T04:15:23;7.37;;;5.47;;
13708;SDS011;54933;51.908;7.730;2022-12-18T04:17:49;7.13;;;5.50;;
13708;SDS011;54933;51.908;7.730;2022-12-18T04:20:15;6.90;;;4.97;;
13708;SDS011;54933;51.908;7.730;2022-12-18T04:22:41;8.57;;;5.10;;
13708;SDS011;54933;51.908;7.730;2022-12-18T04:25:06;6.63;;;4.87;;
13708;SDS011;54933;51.908;7.730;2022-12-18T04:27:32;7.10;;;5.30;;
13708;SDS011;54933;51.908;7.730;2022-12-18T04:29:57;7.80;;;5.30;;
13708;SDS011;54933;51.908;7.730;2022-12-18T04:32:22;7.50;;;5.40;;
13708;SDS011;54933;51.908;7.730;2022-12-18T04:34:48;5.97;;;4.83;;
13708;SDS011;54933;51.908;7.730;2022-12-18T04:37:13;7.03;;;5.07;;
13708;SDS011;54933;51.908;7.730;2022-12-18T04:39:38;5.30;;;4.60;;
13708;SDS011;54933;51.908;7.730;2022-12-18T04:42:04;6.53;;;4.73;;
13708;SDS011;54933;51.908;7.730;2022-12-18T04:44:29;5.67;;;4.83;;
13708;SDS011;54933;51.908;7.730;2022-12-18T04:46:54;6.87;;;4.93;;
13708;SDS011;54933;51.908;7.730;2022-12-18T04:49:20;6.87;;;4.57;;
13708;SDS011;54933;51.908;7.730;2022-12-18T04:51:46;7.33;;;5.10;;
13708;SDS011;54933;51.908;7.730;2022-12-18T04:54:11;5.97;;;4.80;;
13708;SDS011;54933;51.908;7.730;2022-12-18T04:56:36;6.33;;;4.80;;
13708;SDS011;54933;51.908;7.730;2022-12-18T04:59:01;6.17;;;4.63;;
13708;SDS011;54933;51.908;7.730;2022-12-18T05:01:27;5.80;;;5.07;;
13708;SDS011;54933;51.908;7.730;2022-12-18T05:03:52;6.47;;;4.80;;
13708;SDS011;54933;51.908;7.730;2022-12-18T05:06:17;6.10;;;4.57;;
13708;SDS011;54933;51.908;7.730;2022-12-18T05:08:43;6.50;;;4.57;;
13708;SDS011;54933;51.908;7.730;2022-12-18T05:11:09;7.23;;;5.03;;
13708;SDS011;54933;51.908;7.730;2022-12-18T05:13:36;7.60;;;5.10;;
13708;SDS011;54933;51.908;7.730;2022-12-18T05:16:03;5.87;;;4.40;;
13708;SDS011;54933;51.908;7.730;2022-12-18T05:18:29;5.30;;;4.40;;
13708;SDS011;54933;51.908;7.730;2022-12-18T05:20:54;4.97;;;4.03;;
13708;SDS011;54933;51.908;7.730;2022-12-18T05:23:20;5.50;;;4.53;;
13708;SDS011;54933;51.908;7.730;2022-12-18T05:25:47;6.53;;;4.57;;
13708;SDS011;54933;51.908;7.730;2022-12-18T05:28:17;4.80;;;4.10;;
13708;SDS011;54933;51.908;7.730;2022-12-18T05:30:44;6.73;;;4.63;;
13708;SDS011;54933;51.908;7.730;2022-12-18T05:33:12;5.73;;;4.10;;
13708;SDS011;54933;51.908;7.730;2022-12-18T05:35:37;7.13;;;5.00;;
13708;SDS011;54933;51.908;7.730;2022-12-18T05:38:03;6.13;;;4.20;;
13708;SDS011;54933;51.908;7.730;2022-12-18T05:40:28;6.73;;;4.50;;
13708;SDS011;54933;51.908;7.730;2022-12-18T05:42:53;6.47;;;4.60;;
13708;SDS011;54933;51.908;7.730;2022-12-18T05:45:18;5.77;;;4.47;;
13708;SDS011;54933;51.908;7.730;2022-12-18T05:47:45;5.80;;;4.70;;
13708;SDS011;54933;51.908;7.730;2022-12-18T05:50:10;5.97;;;4.23;;
13708;SDS011;54933;51.908;7.730;2022-12-18T05:52:35;5.07;;;4.33;;
13708;SDS011;54933;51.908;7.730;2022-12-18T05:55:01;5.23;;;4.30;;
13708;SDS011;54933;51.908;7.730;2022-12-18T05:57:26;6.33;;;4.37;;
13708;SDS011;54933;51.908;7.730;2022-12-18T05:59:51;5.43;;;4.13;;
13708;SDS011;54933;51.908;7.730;2022-12-18T06:02:16;6.20;;;4.57;;
13708;SDS011;54933;51.908;7.730;2022-12-18T06:04:42;5.93;;;4.47;;
13708;SDS011;54933;51.908;7.730;2022-12-18T06:07:07;8.23;;;4.80;;
13708;SDS011;54933;51.908;7.730;2022-12-18T06:09:32;5.23;;;4.40;;
13708;SDS011;54933;51.908;7.730;2022-12-18T06:11:58;5.67;;;4.27;;
13708;SDS011;54933;51.908;7.730;2022-12-18T06:14:23;6.00;;;4.17;;
13708;SDS011;54933;51.908;7.730;2022-12-18T06:16:50;4.83;;;4.00;;
13708;SDS011;54933;51.908;7.730;2022-12-18T06:19:16;5.63;;;4.80;;
13708;SDS011;54933;51.908;7.730;2022-12-18T06:21:41;5.70;;;4.20;;
13708;SDS011;54933;51.908;7.730;2022-12-18T06:24:07;4.90;;;4.10;;
13708;SDS011;54933;51.908;7.730;2022-12-18T06:26:32;5.77;;;4.20;;
13708;SDS011;54933;51.908;7.730;2022-12-18T06:28:58;4.73;;;4.03;;
13708;SDS011;54933;51.908;7.730;2022-12-18T06:31:24;6.47;;;4.47;;
13708;SDS011;54933;51.908;7.730;2022-12-18T06:33:50;4.47;;;4.00;;
13708;SDS011;54933;51.908;7.730;2022-12-18T06:36:16;4.67;;;4.17;;
13708;SDS011;54933;51.908;7.730;2022-12-18T06:38:42;6.37;;;4.20;;
13708;SDS011;54933;51.908;7.730;2022-12-18T06:41:12;5.53;;;4.27;;
13708;SDS011;54933;51.908;7.730;2022-12-18T06:43:39;6.07;;;4.63;;
13708;SDS011;54933;51.908;7.730;2022-12-18T06:46:05;4.30;;;3.73;;
13708;SDS011;54933;51.908;7.730;2022-12-18T06:48:31;4.43;;;4.00;;
13708;SDS011;54933;51.908;7.730;2022-12-18T06:50:56;5.53;;;4.50;;
13708;SDS011;54933;51.908;7.730;2022-12-18T06:53:22;4.80;;;4.27;;
13708;SDS011;54933;51.908;7.730;2022-12-18T06:55:47;7.10;;;4.23;;
13708;SDS011;54933;51.908;7.730;2022-12-18T06:58:13;4.97;;;3.97;;
13708;SDS011;54933;51.908;7.730;2022-12-18T07:00:38;4.30;;;3.87;;
13708;SDS011;54933;51.908;7.730;2022-12-18T07:03:03;5.40;;;4.40;;
13708;SDS011;54933;51.908;7.730;2022-12-18T07:05:29;4.63;;;4.07;;
13708;SDS011;54933;51.908;7.730;2022-12-18T07:07:54;4.97;;;4.20;;
13708;SDS011;54933;51.908;7.730;2022-12-18T07:10:19;4.50;;;3.67;;
13708;SDS011;54933;51.908;7.730;2022-12-18T07:12:44;4.40;;;3.83;;
13708;SDS011;54933;51.908;7.730;2022-12-18T07:15:10;4.27;;;3.43;;
13708;SDS011;54933;51.908;7.730;2022-12-18T07:17:35;4.53;;;3.90;;
13708;SDS011;54933;51.908;7.730;2022-12-18T07:20:00;4.20;;;3.80;;
13708;SDS011;54933;51.908;7.730;2022-12-18T07:22:26;4.23;;;3.83;;
13708;SDS011;54933;51.908;7.730;2022-12-18T07:24:51;4.43;;;3.57;;
13708;SDS011;54933;51.908;7.730;2022-12-18T07:27:17;4.03;;;3.57;;
13708;SDS011;54933;51.908;7.730;2022-12-18T07:29:42;6.30;;;4.07;;
13708;SDS011;54933;51.908;7.730;2022-12-18T07:32:07;4.87;;;3.87;;
13708;SDS011;54933;51.908;7.730;2022-12-18T07:34:33;15.37;;;3.80;;
13708;SDS011;54933;51.908;7.730;2022-12-18T07:36:58;10.63;;;3.53;;
13708;SDS011;54933;51.908;7.730;2022-12-18T07:39:24;6.43;;;3.87;;
13708;SDS011;54933;51.908;7.730;2022-12-18T07:41:49;5.63;;;4.00;;
13708;SDS011;54933;51.908;7.730;2022-12-18T07:44:34;5.53;;;4.47;;
13708;SDS011;54933;51.908;7.730;2022-12-18T07:47:00;6.27;;;4.20;;
13708;SDS011;54933;51.908;7.730;2022-12-18T07:49:25;5.23;;;4.10;;
13708;SDS011;54933;51.908;7.730;2022-12-18T07:51:50;5.40;;;3.80;;
13708;SDS011;54933;51.908;7.730;2022-12-18T07:54:15;4.60;;;3.90;;
13708;SDS011;54933;51.908;7.730;2022-12-18T07:56:41;4.47;;;3.77;;
13708;SDS011;54933;51.908;7.730;2022-12-18T07:59:06;4.80;;;3.47;;
13708;SDS011;54933;51.908;7.730;2022-12-18T08:01:31;5.17;;;3.83;;
13708;SDS011;54933;51.908;7.730;2022-12-18T08:03:58;4.53;;;3.77;;
13708;SDS011;54933;51.908;7.730;2022-12-18T08:06:23;5.23;;;3.53;;
13708;SDS011;54933;51.908;7.730;2022-12-18T08:08:50;7.80;;;3.30;;
13708;SDS011;54933;51.908;7.730;2022-12-18T08:11:19;5.13;;;3.80;;
13708;SDS011;54933;51.908;7.730;2022-12-18T08:13:44;3.90;;;3.33;;
13708;SDS011;54933;51.908;7.730;2022-12-18T08:16:09;3.93;;;3.07;;
13708;SDS011;54933;51.908;7.730;2022-12-18T08:18:35;3.70;;;3.27;;
13708;SDS011;54933;51.908;7.730;2022-12-18T08:21:09;5.13;;;3.87;;
13708;SDS011;54933;51.908;7.730;2022-12-18T08:23:35;4.97;;;3.90;;
13708;SDS011;54933;51.908;7.730;2022-12-18T08:26:01;4.73;;;3.70;;
13708;SDS011;54933;51.908;7.730;2022-12-18T08:28:26;3.87;;;3.47;;
13708;SDS011;54933;51.908;7.730;2022-12-18T08:30:52;4.57;;;3.87;;
13708;SDS011;54933;51.908;7.730;2022-12-18T08:33:17;4.50;;;3.80;;
13708;SDS011;54933;51.908;7.730;2022-12-18T08:35:42;3.57;;;3.27;;
13708;SDS011;54933;51.908;7.730;2022-12-18T08:38:08;4.70;;;3.37;;
13708;SDS011;54933;51.908;7.730;2022-12-18T08:40:33;3.57;;;3.27;;
13708;SDS011;54933;51.908;7.730;2022-12-18T08:42:58;4.07;;;3.17;;
13708;SDS011;54933;51.908;7.730;2022-12-18T08:45:42;3.63;;;3.17;;
13708;SDS011;54933;51.908;7.730;2022-12-18T08:48:07;4.23;;;3.43;;
13708;SDS011;54933;51.908;7.730;2022-12-18T08:50:33;3.83;;;3.10;;
13708;SDS011;54933;51.908;7.730;2022-12-18T08:52:58;4.37;;;3.37;;
13708;SDS011;54933;51.908;7.730;2022-12-18T08:55:23;4.13;;;3.10;;
13708;SDS011;54933;51.908;7.730;2022-12-18T08:57:49;4.50;;;3.67;;
13708;SDS011;54933;51.908;7.730;2022-12-18T09:00:15;3.90;;;3.50;;
13708;SDS011;54933;51.908;7.730;2022-12-18T09:02:40;5.80;;;3.30;;
13708;SDS011;54933;51.908;7.730;2022-12-18T09:05:06;5.07;;;3.57;;
13708;SDS011;54933;51.908;7.730;2022-12-18T09:07:31;4.00;;;3.37;;
13708;SDS011;54933;51.908;7.730;2022-12-18T09:09:57;6.10;;;3.90;;
13708;SDS011;54933;51.908;7.730;2022-12-18T09:12:22;10.60;;;6.00;;
13708;SDS011;54933;51.908;7.730;2022-12-18T09:14:47;10.73;;;6.40;;
13708;SDS011;54933;51.908;7.730;2022-12-18T09:17:12;15.07;;;7.57;;
13708;SDS011;54933;51.908;7.730;2022-12-18T09:19:38;12.07;;;6.50;;
13708;SDS011;54933;51.908;7.730;2022-12-18T09:22:03;16.47;;;7.83;;
13708;SDS011;54933;51.908;7.730;2022-12-18T09:24:28;11.47;;;7.23;;
13708;SDS011;54933;51.908;7.730;2022-12-18T09:26:54;14.60;;;7.90;;
13708;SDS011;54933;51.908;7.730;2022-12-18T09:29:20;16.57;;;8.30;;
13708;SDS011;54933;51.908;7.730;2022-12-18T09:31:45;15.47;;;7.27;;
13708;SDS011;54933;51.908;7.730;2022-12-18T09:34:11;18.47;;;7.03;;
13708;SDS011;54933;51.908;7.730;2022-12-18T09:36:37;15.03;;;7.47;;
13708;SDS011;54933;51.908;7.730;2022-12-18T09:39:02;12.00;;;7.13;;
13708;SDS011;54933;51.908;7.730;2022-12-18T09:41:33;11.60;;;6.60;;
13708;SDS011;54933;51.908;7.730;2022-12-18T09:44:27;12.47;;;7.17;;
13708;SDS011;54933;51.908;7.730;2022-12-18T09:46:55;13.83;;;6.87;;
13708;SDS011;54933;51.908;7.730;2022-12-18T09:49:34;8.00;;;5.57;;
13708;SDS011;54933;51.908;7.730;2022-12-18T09:52:05;9.53;;;6.37;;
13708;SDS011;54933;51.908;7.730;2022-12-18T09:54:38;9.47;;;5.67;;
13708;SDS011;54933;51.908;7.730;2022-12-18T09:57:05;15.40;;;6.87;;
13708;SDS011;54933;51.908;7.730;2022-12-18T09:59:32;15.47;;;7.07;;
13708;SDS011;54933;51.908;7.730;2022-12-18T10:02:05;17.27;;;7.50;;
13708;SDS011;54933;51.908;7.730;2022-12-18T10:05:06;19.00;;;8.80;;
13708;SDS011;54933;51.908;7.730;2022-12-18T10:07:46;15.17;;;8.43;;
13708;SDS011;54933;51.908;7.730;2022-12-18T10:13:29;16.90;;;7.83;;
13708;SDS011;54933;51.908;7.730;2022-12-18T10:16:14;14.23;;;7.30;;
13708;SDS011;54933;51.908;7.730;2022-12-18T10:21:17;15.00;;;6.73;;
13708;SDS011;54933;51.908;7.730;2022-12-18T10:23:51;13.10;;;6.93;;
13708;SDS011;54933;51.908;7.730;2022-12-18T10:26:24;18.47;;;6.60;;
13708;SDS011;54933;51.908;7.730;2022-12-18T10:28:50;14.87;;;6.70;;
13708;SDS011;54933;51.908;7.730;2022-12-18T10:31:19;13.10;;;7.37;;
13708;SDS011;54933;51.908;7.730;2022-12-18T10:33:46;13.13;;;7.37;;
13708;SDS011;54933;51.908;7.730;2022-12-18T10:36:12;14.30;;;7.73;;
13708;SDS011;54933;51.908;7.730;2022-12-18T10:38:37;17.63;;;7.63;;
13708;SDS011;54933;51.908;7.730;2022-12-18T10:41:23;14.60;;;6.87;;
13708;SDS011;54933;51.908;7.730;2022-12-18T10:44:10;10.47;;;5.90;;
13708;SDS011;54933;51.908;7.730;2022-12-18T10:46:50;12.60;;;6.07;;
13708;SDS011;54933;51.908;7.730;2022-12-18T10:49:25;12.13;;;6.50;;
13708;SDS011;54933;51.908;7.730;2022-12-18T10:52:37;12.23;;;6.00;;
13708;SDS011;54933;51.908;7.730;2022-12-18T10:54:46;11.43;;;6.23;;
13708;SDS011;54933;51.908;7.730;2022-12-18T10:57:17;14.93;;;7.07;;
13708;SDS011;54933;51.908;7.730;2022-12-18T10:59:56;12.73;;;6.33;;
13708;SDS011;54933;51.908;7.730;2022-12-18T11:02:27;12.93;;;6.13;;
13708;SDS011;54933;51.908;7.730;2022-12-18T11:04:59;15.30;;;5.97;;
13708;SDS011;54933;51.908;7.730;2022-12-18T11:07:24;9.77;;;6.30;;
13708;SDS011;54933;51.908;7.730;2022-12-18T11:09:59;10.47;;;5.97;;
13708;SDS011;54933;51.908;7.730;2022-12-18T11:12:25;15.63;;;5.50;;
13708;SDS011;54933;51.908;7.730;2022-12-18T11:14:53;16.37;;;5.43;;
13708;SDS011;54933;51.908;7.730;2022-12-18T11:17:25;16.33;;;6.57;;
13708;SDS011;54933;51.908;7.730;2022-12-18T11:19:58;10.87;;;5.70;;
13708;SDS011;54933;51.908;7.730;2022-12-18T11:27:36;11.97;;;5.73;;
13708;SDS011;54933;51.908;7.730;2022-12-18T11:30:09;12.63;;;6.23;;
13708;SDS011;54933;51.908;7.730;2022-12-18T11:32:49;8.23;;;4.83;;
13708;SDS011;54933;51.908;7.730;2022-12-18T11:38:20;11.20;;;5.37;;
13708;SDS011;54933;51.908;7.730;2022-12-18T11:40:51;9.53;;;4.40;;
13708;SDS011;54933;51.908;7.730;2022-12-18T11:43:44;11.40;;;4.90;;
13708;SDS011;54933;51.908;7.730;2022-12-18T11:46:16;10.87;;;5.47;;
13708;SDS011;54933;51.908;7.730;2022-12-18T11:48:56;12.03;;;5.33;;
13708;SDS011;54933;51.908;7.730;2022-12-18T11:51:32;9.17;;;4.43;;
13708;SDS011;54933;51.908;7.730;2022-12-18T11:54:04;9.27;;;4.90;;
13708;SDS011;54933;51.908;7.730;2022-12-18T11:59:42;10.50;;;4.23;;
13708;SDS011;54933;51.908;7.730;2022-12-18T12:05:14;7.47;;;4.17;;
13708;SDS011;54933;51.908;7.730;2022-12-18T12:10:53;8.17;;;4.50;;
13708;SDS011;54933;51.908;7.730;2022-12-18T12:17:22;9.17;;;4.53;;
13708;SDS011;54933;51.908;7.730;2022-12-18T12:22:24;11.70;;;4.80;;
13708;SDS011;54933;51.908;7.730;2022-12-18T12:27:48;10.43;;;4.87;;
13708;SDS011;54933;51.908;7.730;2022-12-18T12:30:31;7.53;;;4.23;;
13708;SDS011;54933;51.908;7.730;2022-12-18T12:33:20;7.53;;;4.23;;
13708;SDS011;54933;51.908;7.730;2022-12-18T12:36:27;8.33;;;4.83;;
13708;SDS011;54933;51.908;7.730;2022-12-18T12:38:57;5.47;;;4.23;;
13708;SDS011;54933;51.908;7.730;2022-12-18T12:41:27;7.07;;;4.10;;
13708;SDS011;54933;51.908;7.730;2022-12-18T12:44:17;8.93;;;4.53;;
13708;SDS011;54933;51.908;7.730;2022-12-18T12:46:48;6.77;;;4.40;;
13708;SDS011;54933;51.908;7.730;2022-12-18T12:49:15;7.47;;;4.30;;
13708;SDS011;54933;51.908;7.730;2022-12-18T12:51:44;8.50;;;4.23;;
13708;SDS011;54933;51.908;7.730;2022-12-18T12:54:16;9.13;;;4.43;;
13708;SDS011;54933;51.908;7.730;2022-12-18T12:56:47;6.43;;;4.10;;
13708;SDS011;54933;51.908;7.730;2022-12-18T13:02:24;7.47;;;4.33;;
13708;SDS011;54933;51.908;7.730;2022-12-18T13:07:55;7.47;;;4.10;;
13708;SDS011;54933;51.908;7.730;2022-12-18T13:10:28;9.20;;;4.77;;
13708;SDS011;54933;51.908;7.730;2022-12-18T13:17:47;7.37;;;4.73;;
13708;SDS011;54933;51.908;7.730;2022-12-18T13:20:13;8.07;;;4.87;;
13708;SDS011;54933;51.908;7.730;2022-12-18T13:22:42;6.53;;;4.50;;
13708;SDS011;54933;51.908;7.730;2022-12-18T13:28:09;6.30;;;3.90;;
13708;SDS011;54933;51.908;7.730;2022-12-18T13:40:57;9.03;;;4.30;;
13708;SDS011;54933;51.908;7.730;2022-12-18T13:43:28;4.93;;;4.00;;
13708;SDS011;54933;51.908;7.730;2022-12-18T13:46:29;7.50;;;4.63;;
13708;SDS011;54933;51.908;7.730;2022-12-18T13:51:52;5.57;;;3.63;;
13708;SDS011;54933;51.908;7.730;2022-12-18T13:54:25;5.47;;;3.90;;
13708;SDS011;54933;51.908;7.730;2022-12-18T13:56:57;6.00;;;4.03;;
13708;SDS011;54933;51.908;7.730;2022-12-18T13:59:32;7.03;;;4.07;;
13708;SDS011;54933;51.908;7.730;2022-12-18T14:02:00;6.70;;;3.37;;
13708;SDS011;54933;51.908;7.730;2022-12-18T14:04:37;7.20;;;3.57;;
13708;SDS011;54933;51.908;7.730;2022-12-18T14:07:04;7.53;;;3.83;;
13708;SDS011;54933;51.908;7.730;2022-12-18T14:09:35;4.10;;;3.30;;
13708;SDS011;54933;51.908;7.730;2022-12-18T14:12:04;7.37;;;4.27;;
13708;SDS011;54933;51.908;7.730;2022-12-18T14:14:50;97.67;;;7.97;;
13708;SDS011;54933;51.908;7.730;2022-12-18T14:17:17;28.07;;;6.07;;
13708;SDS011;54933;51.908;7.730;2022-12-18T14:19:46;21.17;;;4.80;;
13708;SDS011;54933;51.908;7.730;2022-12-18T14:22:17;31.07;;;4.80;;
13708;SDS011;54933;51.908;7.730;2022-12-18T14:24:45;20.00;;;4.60;;
13708;SDS011;54933;51.908;7.730;2022-12-18T14:27:21;20.73;;;4.00;;
13708;SDS011;54933;51.908;7.730;2022-12-18T14:29:49;18.30;;;4.60;;
13708;SDS011;54933;51.908;7.730;2022-12-18T14:32:18;25.07;;;4.50;;
13708;SDS011;54933;51.908;7.730;2022-12-18T14:37:22;55.67;;;6.23;;
13708;SDS011;54933;51.908;7.730;2022-12-18T14:40:04;23.20;;;4.60;;
13708;SDS011;54933;51.908;7.730;2022-12-18T14:42:30;19.47;;;4.27;;
13708;SDS011;54933;51.908;7.730;2022-12-18T14:47:59;15.73;;;3.80;;
13708;SDS011;54933;51.908;7.730;2022-12-18T14:50:25;21.37;;;4.10;;
13708;SDS011;54933;51.908;7.730;2022-12-18T14:52:51;17.87;;;4.27;;
13708;SDS011;54933;51.908;7.730;2022-12-18T14:55:17;16.20;;;3.83;;
13708;SDS011;54933;51.908;7.730;2022-12-18T14:57:44;20.37;;;4.20;;
13708;SDS011;54933;51.908;7.730;2022-12-18T15:00:17;14.90;;;3.40;;
13708;SDS011;54933;51.908;7.730;2022-12-18T15:02:45;10.63;;;3.40;;
13708;SDS011;54933;51.908;7.730;2022-12-18T15:05:16;10.87;;;3.07;;
13708;SDS011;54933;51.908;7.730;2022-12-18T15:07:54;10.40;;;3.90;;
13708;SDS011;54933;51.908;7.730;2022-12-18T15:10:22;10.90;;;4.13;;
13708;SDS011;54933;51.908;7.730;2022-12-18T15:20:54;10.10;;;3.30;;
13708;SDS011;54933;51.908;7.730;2022-12-18T15:23:46;11.10;;;3.13;;
13708;SDS011;54933;51.908;7.730;2022-12-18T15:26:09;9.23;;;3.40;;
13708;SDS011;54933;51.908;7.730;2022-12-18T15:28:44;8.27;;;3.20;;
13708;SDS011;54933;51.908;7.730;2022-12-18T15:33:37;7.83;;;3.47;;
13708;SDS011;54933;51.908;7.730;2022-12-18T15:36:07;10.30;;;3.70;;
13708;SDS011;54933;51.908;7.730;2022-12-18T15:38:35;5.07;;;2.90;;
13708;SDS011;54933;51.908;7.730;2022-12-18T15:41:00;10.23;;;3.17;;
13708;SDS011;54933;51.908;7.730;2022-12-18T15:43:26;6.27;;;3.17;;
13708;SDS011;54933;51.908;7.730;2022-12-18T15:46:03;6.70;;;2.80;;
13708;SDS011;54933;51.908;7.730;2022-12-18T15:48:32;4.57;;;2.93;;
13708;SDS011;54933;51.908;7.730;2022-12-18T15:50:59;7.83;;;2.90;;
13708;SDS011;54933;51.908;7.730;2022-12-18T15:53:25;8.73;;;2.80;;
13708;SDS011;54933;51.908;7.730;2022-12-18T15:55:54;6.50;;;3.03;;
13708;SDS011;54933;51.908;7.730;2022-12-18T15:58:38;5.80;;;3.33;;
13708;SDS011;54933;51.908;7.730;2022-12-18T16:01:03;7.77;;;3.17;;
13708;SDS011;54933;51.908;7.730;2022-12-18T16:03:29;8.37;;;3.10;;
13708;SDS011;54933;51.908;7.730;2022-12-18T16:05:54;5.73;;;3.10;;
13708;SDS011;54933;51.908;7.730;2022-12-18T16:08:19;9.63;;;3.47;;
13708;SDS011;54933;51.908;7.730;2022-12-18T16:10:45;6.93;;;3.10;;
13708;SDS011;54933;51.908;7.730;2022-12-18T16:13:10;4.00;;;3.03;;
13708;SDS011;54933;51.908;7.730;2022-12-18T16:15:37;10.23;;;3.60;;
13708;SDS011;54933;51.908;7.730;2022-12-18T16:18:02;4.20;;;2.77;;
13708;SDS011;54933;51.908;7.730;2022-12-18T16:20:27;4.93;;;2.83;;
13708;SDS011;54933;51.908;7.730;2022-12-18T16:22:53;5.33;;;3.13;;
13708;SDS011;54933;51.908;7.730;2022-12-18T16:25:19;4.57;;;3.10;;
13708;SDS011;54933;51.908;7.730;2022-12-18T16:27:47;6.07;;;2.87;;
13708;SDS011;54933;51.908;7.730;2022-12-18T16:30:17;189.40;;;13.93;;
13708;SDS011;54933;51.908;7.730;2022-12-18T16:32:44;39.70;;;5.77;;
13708;SDS011;54933;51.908;7.730;2022-12-18T16:35:11;30.30;;;4.73;;
13708;SDS011;54933;51.908;7.730;2022-12-18T16:37:38;20.17;;;3.43;;
13708;SDS011;54933;51.908;7.730;2022-12-18T16:40:05;18.47;;;4.33;;